Time;durP1;ratioP1;P1;durP2;ratioP2;P2;SDS_P1;SDS_P2;PMS_P1;PMS_P2;Temp;Humidity;BMP_temperature;BMP_pressure;BME280_temperature;BME280_humidity;BME280_pressure;Samples;Min_cycle;Max_cycle;Signal;HPM_P1;HPM_P2
2022/04/26 03:37:57;;;;;;;;;;;;;;;9.47;100.00;98258.16;1812791;79;20116;-74
2022/04/26 03:40:24;;;;;;;;;;;;;;;9.50;100.00;98260.45;1812797;79;20129;-73
2022/04/26 03:42:52;;;;;;;;;;;;;;;9.54;100.00;98252.77;1821163;79;20152;-74
2022/04/26 03:45:19;;;;;;;;;;;;;;;9.59;100.00;98251.62;1821237;79;20152;-74
2022/04/26 03:47:47;;;;;;;;;;;;;;;9.64;100.00;98250.48;1821379;79;20436;-73
2022/04/26 03:50:15;;;;;;;;;;;;;;;9.70;100.00;98253.68;1821138;79;20184;-74
2022/04/26 03:52:44;;;;;;;;;;;;;;;9.77;100.00;98253.68;1821345;79;20156;-74
2022/04/26 03:55:10;;;;;;;;;;;;;;;9.84;100.00;98254.00;1820933;79;20116;-74
2022/04/26 03:57:38;;;;;;;;;;;;;;;9.92;100.00;98252.94;1821062;79;20124;-72
2022/04/26 04:00:06;;;;;;;;;;;;;;;10.02;100.00;98256.54;1821408;79;20120;-73
2022/04/26 04:02:34;;;;;;;;;;;;;;;10.12;100.00;98254.77;1821247;79;20124;-75
2022/04/26 04:05:01;;;;;;;;;;;;;;;10.21;100.00;98256.19;1820912;79;20116;-71
2022/04/26 04:07:29;;;;;;;;;;;;;;;10.30;100.00;98255.44;1771423;80;20105;-70
2022/04/26 04:09:56;;;;;;;;;;;;;;;10.38;100.00;98263.34;1771686;81;20144;-72
2022/04/26 04:12:23;;;;;;;;;;;;;;;10.45;100.00;98269.02;1771243;81;20129;-69
2022/04/26 04:14:52;;;;;;;;;;;;;;;10.55;100.00;98277.19;1771419;80;20120;-71
2022/04/26 04:17:19;;;;;;;;;;;;;;;10.64;100.00;98274.05;1772030;81;20113;-76
2022/04/26 04:19:47;;;;;;;;;;;;;;;10.73;100.00;98285.45;1772317;81;20132;-74
2022/04/26 04:22:17;;;;;;;;;;;;;;;10.83;100.00;98289.03;1772529;81;20101;-76
2022/04/26 04:24:44;;;;;;;;;;;;;;;10.95;100.00;98304.06;1772966;81;20117;-77
2022/04/26 04:27:11;;;;;;;;;;;;;;;11.04;100.00;98309.52;1772199;81;20133;-75
2022/04/26 04:29:40;;;;;;;;;;;;;;;11.14;100.00;98318.53;1772650;81;20125;-78
2022/04/26 04:32:07;;;;;;;;;;;;;;;11.26;100.00;98336.23;1772736;81;20117;-77
2022/04/26 04:34:35;;;;;;;;;;;;;;;11.39;100.00;98355.11;1793112;79;20095;-70
2022/04/26 04:37:03;;;;;;;;;;;;;;;11.53;100.00;98377.52;1808052;79;20549;-70
2022/04/26 04:39:32;;;;;;;;;;;;;;;11.66;100.00;98386.89;1808809;79;20119;-71
2022/04/26 04:41:59;;;;;;;;;;;;;;;11.80;100.00;98366.50;1808382;79;20094;-70
2022/04/26 04:44:26;;;;;;;;;;;;;;;11.94;100.00;98389.22;1809714;79;20134;-76
2022/04/26 04:46:58;;;;;;;;;;;;;;;12.10;100.00;98402.73;1810790;79;20109;-77
2022/04/26 04:49:23;;;;;;;;;;;;;;;12.31;100.00;98416.97;1811228;79;20111;-77
2022/04/26 04:51:50;;;;;;;;;;;;;;;12.53;100.00;98434.46;1810447;79;20422;-75
2022/04/26 04:54:17;;;;;;;;;;;;;;;12.79;100.00;98450.19;1810364;79;20110;-78
2022/04/26 04:56:44;;;;;;;;;;;;;;;13.02;100.00;98467.16;1809939;79;20094;-78
2022/04/26 04:59:11;;;;;;;;;;;;;;;13.28;100.00;98482.86;1810409;79;20102;-77
2022/04/26 05:01:39;;;;;;;;;;;;;;;13.51;100.00;98497.13;1810131;79;20111;-76
2022/04/26 05:04:08;;;;;;;;;;;;;;;13.75;100.00;98518.96;1810505;79;20118;-77
2022/04/26 05:06:38;;;;;;;;;;;;;;;13.95;100.00;98542.63;1807334;79;20102;-77
2022/04/26 05:09:05;;;;;;;;;;;;;;;14.09;100.00;98580.48;1805434;79;20225;-76
2022/04/26 05:11:34;;;;;;;;;;;;;;;14.15;100.00;98615.74;1805571;78;20119;-77
2022/04/26 05:14:08;;;;;;;;;;;;;;;14.19;100.00;98641.40;1804449;80;20138;-76
2022/04/26 05:16:35;;;;;;;;;;;;;;;14.30;100.00;98658.83;1804866;79;20388;-80
2022/04/26 05:19:02;;;;;;;;;;;;;;;14.46;100.00;98659.25;1804459;79;20114;-77
2022/04/26 05:21:28;;;;;;;;;;;;;;;14.55;100.00;98676.91;1804700;79;20106;-76
2022/04/26 05:26:49;;;;;;;;;;;;;;;14.71;100.00;98700.77;1782126;80;20108;-83
2022/04/26 05:29:22;;;;;;;;;;;;;;;14.94;100.00;98713.66;1756466;81;20103;-76
2022/04/26 05:31:50;;;;;;;;;;;;;;;15.12;100.00;98729.09;1709926;83;20230;-73
2022/04/26 05:34:19;;;;;;;;;;;;;;;15.32;100.00;98760.09;1686170;84;20156;-76
2022/04/26 05:36:57;;;;;;;;;;;;;;;15.53;100.00;98779.14;1655617;84;20080;-77
2022/04/26 05:39:32;;;;;;;;;;;;;;;15.72;100.00;98795.39;1559213;91;20175;-75
2022/04/26 05:41:59;;;;;;;;;;;;;;;15.96;100.00;98833.08;1568475;91;20464;-76
2022/04/26 05:44:26;;;;;;;;;;;;;;;16.15;100.00;98866.53;1556391;92;20160;-77
2022/04/26 05:46:52;;;;;;;;;;;;;;;16.31;100.00;98906.73;1557246;91;20169;-76
2022/04/26 05:49:19;;;;;;;;;;;;;;;16.49;100.00;98942.63;1555998;92;20445;-74
2022/04/26 05:51:49;;;;;;;;;;;;;;;16.68;100.00;98994.38;1555294;91;20119;-76
2022/04/26 05:54:16;;;;;;;;;;;;;;;16.79;100.00;99028.21;1584348;91;20450;-77
2022/04/26 05:56:43;;;;;;;;;;;;;;;17.00;100.00;99038.57;1584558;90;20146;-76
2022/04/26 05:59:09;;;;;;;;;;;;;;;17.17;100.00;99066.52;1585001;90;20147;-75
2022/04/26 06:01:37;;;;;;;;;;;;;;;17.27;100.00;99081.79;1583882;90;20150;-76
2022/04/26 06:04:06;;;;;;;;;;;;;;;17.37;100.00;99086.13;1584376;91;20197;-78
2022/04/26 06:06:35;;;;;;;;;;;;;;;17.56;100.00;99088.16;1574835;89;20231;-77
2022/04/26 06:09:03;;;;;;;;;;;;;;;17.67;100.00;99112.47;1562613;91;20183;-75
2022/04/26 06:11:30;;;;;;;;;;;;;;;17.71;100.00;99131.96;1562643;91;20212;-76
2022/04/26 06:14:01;;;;;;;;;;;;;;;17.82;100.00;99140.67;1562447;91;20214;-74
2022/04/26 06:16:28;;;;;;;;;;;;;;;17.94;100.00;99155.19;1562425;91;20304;-77
2022/04/26 06:18:58;;;;;;;;;;;;;;;18.04;100.00;99166.86;1562555;91;20168;-76
2022/04/26 06:21:25;;;;;;;;;;;;;;;18.16;100.00;99166.84;1562876;92;20196;-76
2022/04/26 06:23:54;;;;;;;;;;;;;;;18.27;100.00;99173.35;1547424;91;20147;-75
2022/04/26 06:26:21;;;;;;;;;;;;;;;18.43;100.00;99173.94;1563594;91;20117;-76
2022/04/26 06:28:48;;;;;;;;;;;;;;;18.58;100.00;99179.72;1550178;91;20123;-78
2022/04/26 06:31:17;;;;;;;;;;;;;;;18.78;100.00;99185.29;1529090;94;20208;-76
2022/04/26 06:33:44;;;;;;;;;;;;;;;18.92;100.00;99200.91;1538062;93;20171;-76
2022/04/26 06:36:11;;;;;;;;;;;;;;;19.04;100.00;99222.78;1537919;93;20136;-77
2022/04/26 06:38:40;;;;;;;;;;;;;;;19.23;100.00;99240.66;1548578;93;20404;-77
2022/04/26 06:41:08;;;;;;;;;;;;;;;19.42;100.00;99250.00;1549297;92;20179;-74
2022/04/26 06:43:37;;;;;;;;;;;;;;;19.41;100.00;99257.41;1661414;85;20412;-75
2022/04/26 06:46:05;;;;;;;;;;;;;;;19.43;100.00;99292.25;1679411;85;20197;-75
2022/04/26 06:48:33;;;;;;;;;;;;;;;19.35;100.00;99341.47;1722618;82;20135;-76
2022/04/26 06:51:03;;;;;;;;;;;;;;;19.46;100.00;99350.70;1738712;82;20234;-76
2022/04/26 06:53:30;;;;;;;;;;;;;;;19.67;100.00;99353.28;1739166;82;20099;-75
2022/04/26 06:55:59;;;;;;;;;;;;;;;19.85;100.00;99358.27;1738473;82;20108;-77
2022/04/26 06:58:27;;;;;;;;;;;;;;;20.08;100.00;99359.47;1739147;82;20108;-78
2022/04/26 07:00:54;;;;;;;;;;;;;;;20.28;100.00;99364.43;1739475;82;20119;-76
2022/04/26 07:03:25;;;;;;;;;;;;;;;20.52;100.00;99360.09;1738531;82;20159;-80
2022/04/26 07:05:52;;;;;;;;;;;;;;;20.80;100.00;99362.43;1740830;81;20163;-79
2022/04/26 07:08:20;;;;;;;;;;;;;;;20.92;100.00;99371.94;1774632;81;20113;-75
2022/04/26 07:10:47;;;;;;;;;;;;;;;21.00;100.00;99374.22;1772934;80;20152;-72
2022/04/26 07:13:18;;;;;;;;;;;;;;;21.04;100.00;99370.71;1773187;80;20159;-75
2022/04/26 07:15:44;;;;;;;;;;;;;;;21.09;100.00;99379.58;1773686;80;20133;-76
2022/04/26 07:18:13;;;;;;;;;;;;;;;21.12;100.00;99381.79;1773518;80;20160;-75
2022/04/26 07:20:41;;;;;;;;;;;;;;;21.13;100.00;99382.09;1744206;81;20136;-78
2022/04/26 07:23:08;;;;;;;;;;;;;;;21.16;100.00;99380.73;1774237;80;20113;-76
2022/04/26 07:25:35;;;;;;;;;;;;;;;21.24;100.00;99377.53;1774715;80;20096;-75
2022/04/26 07:28:04;;;;;;;;;;;;;;;21.43;100.00;99376.09;1774570;80;20121;-75
2022/04/26 07:30:38;;;;;;;;;;;;;;;21.59;100.00;99374.37;1774618;80;20401;-78
2022/04/26 07:35:54;;;;;;;;;;;;;;;21.81;100.00;99374.84;1775066;80;20100;-76
2022/04/26 07:38:23;;;;;;;;;;;;;;;21.70;100.00;99371.17;1774872;80;20108;-76
2022/04/26 07:40:50;;;;;;;;;;;;;;;21.65;100.00;99371.67;1774592;81;20101;-76
2022/04/26 07:43:17;;;;;;;;;;;;;;;21.68;100.00;99376.66;1774155;81;20155;-76
2022/04/26 07:45:45;;;;;;;;;;;;;;;21.73;100.00;99372.03;1774009;81;20117;-77
2022/04/26 07:48:14;;;;;;;;;;;;;;;21.79;100.00;99375.09;1774481;80;20136;-78
2022/04/26 07:50:41;;;;;;;;;;;;;;;21.53;100.00;99371.30;1774466;80;20108;-75
2022/04/26 07:53:09;;;;;;;;;;;;;;;21.62;100.00;99366.16;1740654;82;20145;-73
2022/04/26 07:55:38;;;;;;;;;;;;;;;21.70;100.00;99370.34;1758884;82;20124;-77
2022/04/26 07:58:07;;;;;;;;;;;;;;;21.73;100.00;99376.16;1758120;82;20109;-74
2022/04/26 08:00:35;;;;;;;;;;;;;;;21.91;100.00;99368.05;1758321;82;20393;-76
2022/04/26 08:03:02;;;;;;;;;;;;;;;22.15;100.00;99364.41;1758251;82;20100;-75
2022/04/26 08:05:32;;;;;;;;;;;;;;;22.32;100.00;99367.02;1758692;82;20125;-75
2022/04/26 08:08:01;;;;;;;;;;;;;;;22.36;100.00;99372.30;1757126;82;20133;-74
2022/04/26 08:10:29;;;;;;;;;;;;;;;22.22;100.00;99371.59;1756381;82;20158;-74
2022/04/26 08:12:56;;;;;;;;;;;;;;;22.11;100.00;99366.56;1759453;81;20097;-78
2022/04/26 08:15:24;;;;;;;;;;;;;;;22.08;100.00;99366.55;1759261;82;20129;-74
2022/04/26 08:17:54;;;;;;;;;;;;;;;22.20;100.00;99364.97;1759805;82;20164;-77
2022/04/26 08:20:22;;;;;;;;;;;;;;;22.32;100.00;99372.53;1759485;82;20105;-73
2022/04/26 08:22:51;;;;;;;;;;;;;;;22.57;100.00;99369.66;1759035;82;20113;-76
2022/04/26 08:28:04;;;;;;;;;;;;;;;22.91;100.00;99377.02;1766793;80;20128;-78
2022/04/26 08:30:33;;;;;;;;;;;;;;;22.99;100.00;99376.22;1796279;80;20143;-77
2022/04/26 08:33:02;;;;;;;;;;;;;;;22.98;98.08;99379.50;1796875;80;20132;-76
2022/04/26 08:35:31;;;;;;;;;;;;;;;22.89;99.09;99383.32;1789775;80;20431;-71
2022/04/26 08:37:59;;;;;;;;;;;;;;;22.83;99.47;99380.83;1796206;80;20106;-69
2022/04/26 08:40:26;;;;;;;;;;;;;;;22.95;96.68;99375.92;1823973;79;20413;-73
2022/04/26 08:42:53;;;;;;;;;;;;;;;23.01;97.99;99369.88;1824320;79;20106;-76
2022/04/26 08:45:20;;;;;;;;;;;;;;;23.13;94.75;99371.33;1824840;79;20098;-73
2022/04/26 08:53:22;;;;;;;;;;;;;;;23.40;87.03;99376.37;1810262;79;20192;-74
2022/04/26 08:55:51;;;;;;;;;;;;;;;23.36;84.39;99378.03;1817995;79;20140;-74
2022/04/26 08:58:18;;;;;;;;;;;;;;;23.23;87.48;99377.45;1786116;80;20138;-75
2022/04/26 09:01:18;;;;;;;;;;;;;;;23.16;86.28;99377.41;1786733;80;20136;-73
2022/04/26 09:03:54;;;;;;;;;;;;;;;23.07;89.64;99371.58;1787747;80;20123;-75
2022/04/26 09:06:34;;;;;;;;;;;;;;;23.21;88.34;99373.28;1768419;80;20126;-73
2022/04/26 09:09:09;;;;;;;;;;;;;;;23.43;89.54;99375.84;1770907;81;20137;-76
2022/04/26 09:11:37;;;;;;;;;;;;;;;23.53;81.63;99372.27;1771815;81;20453;-73
2022/04/26 09:14:08;;;;;;;;;;;;;;;23.54;86.68;99374.75;1770072;80;20136;-73
2022/04/26 09:16:38;;;;;;;;;;;;;;;23.69;87.54;99365.66;1632632;87;21655;-75
2022/04/26 09:19:08;;;;;;;;;;;;;;;23.86;88.22;99370.96;1631412;87;20135;-73
2022/04/26 09:21:36;;;;;;;;;;;;;;;23.94;86.54;99366.81;1699023;84;20130;-76
2022/04/26 09:24:06;;;;;;;;;;;;;;;23.92;82.91;99376.78;1652275;85;20427;-73
2022/04/26 09:26:38;;;;;;;;;;;;;;;23.72;84.23;99371.20;1687605;85;20108;-77
2022/04/26 09:29:08;;;;;;;;;;;;;;;23.80;84.26;99368.76;1675886;85;20566;-72
2022/04/26 09:31:37;;;;;;;;;;;;;;;23.80;80.88;99372.90;1671024;86;20150;-74
2022/04/26 09:34:12;;;;;;;;;;;;;;;23.73;84.44;99372.84;1677149;85;20104;-75
2022/04/26 09:36:44;;;;;;;;;;;;;;;23.72;85.75;99378.92;1684526;85;20231;-70
2022/04/26 09:39:11;;;;;;;;;;;;;;;23.84;87.14;99374.55;1591682;90;20463;-71
2022/04/26 09:41:39;;;;;;;;;;;;;;;24.10;86.06;99376.78;1589235;90;20106;-76
2022/04/26 09:44:08;;;;;;;;;;;;;;;24.28;79.81;99374.00;1590807;90;20165;-75
2022/04/26 09:46:45;;;;;;;;;;;;;;;24.25;80.94;99369.02;1590814;90;20146;-74
2022/04/26 09:51:41;;;;;;;;;;;;;;;23.82;74.72;99375.39;1535770;94;20186;-73
2022/04/26 09:54:09;;;;;;;;;;;;;;;23.81;78.26;99377.30;1534350;93;20167;-73
2022/04/26 09:56:37;;;;;;;;;;;;;;;24.03;77.72;99364.62;1528061;94;20156;-73
2022/04/26 09:59:05;;;;;;;;;;;;;;;24.05;76.70;99376.21;1527854;93;20161;-73
2022/04/26 10:01:45;;;;;;;;;;;;;;;24.05;78.18;99373.45;1528141;93;20202;-71
2022/04/26 10:04:21;;;;;;;;;;;;;;;24.01;74.51;99379.79;1528786;93;20180;-74
2022/04/26 10:06:51;;;;;;;;;;;;;;;23.97;78.26;99375.94;1531200;92;20255;-74
2022/04/26 10:09:18;;;;;;;;;;;;;;;24.08;71.44;99373.44;1551699;92;20118;-72
2022/04/26 10:11:46;;;;;;;;;;;;;;;24.16;71.92;99383.94;1538843;93;20162;-70
2022/04/26 10:14:13;;;;;;;;;;;;;;;24.14;69.45;99374.29;1538598;93;20181;-74
2022/04/26 10:16:40;;;;;;;;;;;;;;;24.05;72.43;99366.55;1543738;92;20156;-74
2022/04/26 10:19:12;;;;;;;;;;;;;;;24.14;75.29;99376.48;1542183;92;20214;-71
2022/04/26 10:21:42;;;;;;;;;;;;;;;24.30;74.24;99365.44;1534363;94;20149;-73
2022/04/26 10:24:14;;;;;;;;;;;;;;;24.51;74.47;99370.38;1534281;91;20151;-71
2022/04/26 10:26:41;;;;;;;;;;;;;;;24.60;75.78;99365.95;1536319;93;20125;-71
2022/04/26 10:29:12;;;;;;;;;;;;;;;24.70;71.95;99372.00;1538915;93;20155;-75
2022/04/26 10:31:49;;;;;;;;;;;;;;;24.75;71.03;99363.69;1539613;93;20504;-75
2022/04/26 10:34:23;;;;;;;;;;;;;;;24.84;73.40;99370.28;1548772;92;20148;-75
2022/04/26 10:36:54;;;;;;;;;;;;;;;24.94;69.61;99380.50;1605394;89;20122;-72
2022/04/26 10:39:26;;;;;;;;;;;;;;;24.91;68.28;99367.23;1616512;89;20121;-75
2022/04/26 10:41:54;;;;;;;;;;;;;;;24.95;65.91;99373.88;1622837;88;20139;-73
2022/04/26 10:44:23;;;;;;;;;;;;;;;24.72;64.80;99373.92;1640235;88;20120;-76
2022/04/26 10:46:58;;;;;;;;;;;;;;;24.62;67.14;99378.94;1640234;88;20116;-72
2022/04/26 10:49:42;;;;;;;;;;;;;;;24.63;69.25;99381.98;1714549;83;20109;-76
2022/04/26 10:54:51;;;;;;;;;;;;;;;24.89;65.18;99379.95;1667107;86;20197;-75
2022/04/26 10:57:20;;;;;;;;;;;;;;;25.03;68.00;99371.88;1718514;84;20117;-73
2022/04/26 10:59:58;;;;;;;;;;;;;;;25.32;62.91;99370.68;1716228;83;20102;-72
2022/04/26 11:02:27;;;;;;;;;;;;;;;25.27;60.19;99370.70;1603782;89;20127;-69
2022/04/26 11:04:59;;;;;;;;;;;;;;;25.11;61.82;99361.63;1603721;90;20203;-74
2022/04/26 11:07:27;;;;;;;;;;;;;;;25.14;62.88;99367.98;1615425;89;20110;-74
2022/04/26 11:09:57;;;;;;;;;;;;;;;25.25;62.76;99367.93;1611764;89;20110;-73
2022/04/26 11:12:28;;;;;;;;;;;;;;;25.36;62.40;99362.63;1611499;89;20463;-78
2022/04/26 11:14:58;;;;;;;;;;;;;;;25.50;58.84;99361.45;1611193;89;20427;-73
2022/04/26 11:17:29;;;;;;;;;;;;;;;25.42;59.54;99361.48;1611120;89;20110;-74
2022/04/26 11:19:58;;;;;;;;;;;;;;;25.20;58.47;99358.52;1632821;85;20102;-73
2022/04/26 11:22:26;;;;;;;;;;;;;;;24.81;62.25;99356.48;1643237;87;20463;-73
2022/04/26 11:28:05;;;;;;;;;;;;;;;24.64;64.92;99356.80;1648598;87;20142;-74
2022/04/26 11:30:33;;;;;;;;;;;;;;;24.52;60.76;99355.44;1639669;87;20445;-77
2022/04/26 11:33:02;;;;;;;;;;;;;;;24.52;64.72;99352.67;1646093;87;20144;-72
2022/04/26 11:35:31;;;;;;;;;;;;;;;24.52;65.94;99353.48;1656033;86;20651;-75
2022/04/26 11:38:08;;;;;;;;;;;;;;;24.46;68.08;99354.63;1651391;86;20418;-73
2022/04/26 11:40:41;;;;;;;;;;;;;;;24.45;70.39;99352.95;1646349;86;20103;-72
2022/04/26 11:43:16;;;;;;;;;;;;;;;24.77;69.69;99344.34;1659126;86;20248;-76
2022/04/26 11:45:48;;;;;;;;;;;;;;;24.90;66.50;99342.09;1664160;86;20117;-73
2022/04/26 11:48:16;;;;;;;;;;;;;;;24.87;63.73;99344.84;1673051;86;20153;-75
2022/04/26 11:50:44;;;;;;;;;;;;;;;24.81;62.38;99341.84;1673019;86;20201;-76
2022/04/26 11:53:13;;;;;;;;;;;;;;;24.73;63.83;99347.38;1672946;86;20402;-74
2022/04/26 11:55:44;;;;;;;;;;;;;;;24.57;66.36;99352.13;1672797;86;20137;-74
2022/04/26 11:58:19;;;;;;;;;;;;;;;24.43;68.58;99346.36;1681876;84;20111;-74
2022/04/26 12:00:54;;;;;;;;;;;;;;;24.54;67.73;99341.66;1718863;83;20492;-74
2022/04/26 12:03:24;;;;;;;;;;;;;;;24.58;66.59;99343.30;1731129;82;20163;-76
2022/04/26 12:05:56;;;;;;;;;;;;;;;24.58;65.21;99342.74;1760195;82;20210;-75
2022/04/26 12:08:23;;;;;;;;;;;;;;;24.57;68.45;99341.08;1688343;84;20147;-74
2022/04/26 12:10:52;;;;;;;;;;;;;;;24.61;70.20;99344.10;1686954;85;20160;-76
2022/04/26 12:13:31;;;;;;;;;;;;;;;24.59;68.79;99338.85;1687198;85;20128;-73
2022/04/26 12:16:20;;;;;;;;;;;;;;;24.57;69.08;99336.11;1686927;85;20158;-74
2022/04/26 12:18:55;;;;;;;;;;;;;;;24.60;72.17;99339.14;1688187;85;20432;-71
2022/04/26 12:21:24;;;;;;;;;;;;;;;24.78;69.52;99330.78;1687987;85;20162;-75
2022/04/26 12:24:16;;;;;;;;;;;;;;;24.62;68.95;99336.91;1688767;85;20155;-74
2022/04/26 12:27:04;;;;;;;;;;;;;;;24.59;73.28;99334.70;1649538;85;20146;-72
2022/04/26 12:29:38;;;;;;;;;;;;;;;24.96;70.86;99338.99;1648713;86;20376;-76
2022/04/26 12:32:11;;;;;;;;;;;;;;;25.11;67.33;99339.50;1647559;87;20123;-75
2022/04/26 12:37:31;;;;;;;;;;;;;;;25.09;61.29;99346.41;1569730;92;20122;-76
2022/04/26 12:40:10;;;;;;;;;;;;;;;24.75;63.69;99334.09;1594798;90;20127;-75
2022/04/26 12:42:39;;;;;;;;;;;;;;;24.58;67.67;99341.92;1593934;90;20170;-75
2022/04/26 12:45:23;;;;;;;;;;;;;;;24.67;66.76;99338.03;1595073;90;20186;-75
2022/04/26 12:50:55;;;;;;;;;;;;;;;24.60;63.11;99341.91;1594459;89;20147;-74
2022/04/26 12:53:25;;;;;;;;;;;;;;;24.57;63.09;99341.08;1595001;90;20183;-74
2022/04/26 12:55:52;;;;;;;;;;;;;;;24.59;66.64;99345.77;1595266;90;20147;-75
2022/04/26 12:58:38;;;;;;;;;;;;;;;24.72;74.08;99336.07;1594215;90;20123;-75
2022/04/26 13:01:07;;;;;;;;;;;;;;;24.95;70.34;99329.06;1563768;92;20179;-73
2022/04/26 13:03:34;;;;;;;;;;;;;;;24.97;72.50;99330.98;1563863;92;20153;-74
2022/04/26 13:06:08;;;;;;;;;;;;;;;25.07;73.78;99341.16;1564212;92;20114;-75
2022/04/26 13:08:37;;;;;;;;;;;;;;;25.04;77.71;99343.13;1517853;94;20207;-75
2022/04/26 13:11:04;;;;;;;;;;;;;;;25.07;74.83;99335.63;1510173;95;20214;-78
2022/04/26 13:13:34;;;;;;;;;;;;;;;25.03;76.24;99330.96;1494808;94;20178;-74
2022/04/26 13:16:01;;;;;;;;;;;;;;;24.90;77.03;99335.99;1495278;96;20155;-75
2022/04/26 13:18:29;;;;;;;;;;;;;;;24.86;76.63;99328.00;1495420;94;20155;-74
2022/04/26 13:20:57;;;;;;;;;;;;;;;24.76;80.00;99337.15;1495103;96;20160;-76
2022/04/26 13:23:26;;;;;;;;;;;;;;;24.80;75.42;99339.61;1523882;93;20127;-75
2022/04/26 13:25:57;;;;;;;;;;;;;;;24.82;74.51;99337.95;1536074;94;20129;-74
2022/04/26 13:28:25;;;;;;;;;;;;;;;24.86;68.52;99344.59;1547703;93;20118;-76
2022/04/26 13:30:53;;;;;;;;;;;;;;;24.81;65.20;99341.84;1537015;94;20186;-76
2022/04/26 13:33:21;;;;;;;;;;;;;;;24.84;69.02;99339.88;1537889;92;20146;-74
2022/04/26 13:35:50;;;;;;;;;;;;;;;25.05;65.87;99339.80;1560469;92;20113;-75
2022/04/26 13:38:17;;;;;;;;;;;;;;;25.05;63.35;99342.56;1560798;92;20147;-75
2022/04/26 13:40:44;;;;;;;;;;;;;;;24.98;62.62;99340.95;1560555;92;20232;-75
2022/04/26 13:43:11;;;;;;;;;;;;;;;24.93;63.80;99341.50;1561000;92;20136;-75
2022/04/26 13:45:39;;;;;;;;;;;;;;;24.91;65.54;99343.73;1560691;92;20133;-75
2022/04/26 13:48:11;;;;;;;;;;;;;;;24.81;68.02;99341.84;1545309;92;20376;-75
2022/04/26 13:50:39;;;;;;;;;;;;;;;24.90;69.91;99340.70;1524769;94;20178;-74
2022/04/26 13:53:06;;;;;;;;;;;;;;;25.03;68.06;99343.41;1540867;90;20145;-76
2022/04/26 13:55:33;;;;;;;;;;;;;;;24.97;68.62;99346.19;1571707;91;20148;-73
2022/04/26 13:58:05;;;;;;;;;;;;;;;24.90;69.25;99351.77;1600203;90;20150;-75
2022/04/26 14:00:34;;;;;;;;;;;;;;;24.68;69.36;99352.10;1613305;88;20102;-75
2022/04/26 14:03:01;;;;;;;;;;;;;;;24.34;72.84;99356.30;1613208;89;20129;-76
2022/04/26 14:05:28;;;;;;;;;;;;;;;24.20;76.90;99346.92;1678447;83;20390;-75
2022/04/26 14:07:57;;;;;;;;;;;;;;;24.28;80.44;99342.23;1755112;82;20431;-75
2022/04/26 14:10:25;;;;;;;;;;;;;;;24.44;77.64;99349.38;1760310;82;20165;-76
2022/04/26 14:12:55;;;;;;;;;;;;;;;24.48;74.40;99353.78;1760891;82;20146;-75
2022/04/26 14:21:46;;;;;;;;;;;;;;;24.04;80.29;99360.73;1761036;82;20110;-75
2022/04/26 14:23:43;;;;;;;;;;;;;;;23.26;88.02;99359.52;1761445;82;20125;-76
2022/04/26 14:26:12;;;;;;;;;;;;;;;22.92;93.01;99354.41;1761398;82;20130;-73
2022/04/26 14:28:44;;;;;;;;;;;;;;;22.94;96.44;99354.41;1761033;82;20161;-75
2022/04/26 14:31:11;;;;;;;;;;;;;;;23.05;96.14;99352.55;1760286;82;20142;-71
2022/04/26 14:33:38;;;;;;;;;;;;;;;23.21;97.26;99359.50;1759900;82;20099;-71
2022/04/26 14:36:05;;;;;;;;;;;;;;;23.27;94.43;99355.11;1759850;82;20211;-70
2022/04/26 14:38:32;;;;;;;;;;;;;;;23.34;97.60;99354.86;1760680;80;20489;-73
2022/04/26 14:40:59;;;;;;;;;;;;;;;23.44;93.08;99374.73;1760887;82;20107;-72
2022/04/26 14:43:27;;;;;;;;;;;;;;;23.25;92.68;99366.97;1761344;82;20145;-75
2022/04/26 14:45:55;;;;;;;;;;;;;;;22.91;94.00;99366.52;1761311;82;20110;-74
2022/04/26 14:48:23;;;;;;;;;;;;;;;22.74;97.91;99368.92;1760775;82;20130;-76
2022/04/26 14:50:51;;;;;;;;;;;;;;;22.79;98.09;99361.25;1761093;82;20119;-73
2022/04/26 14:53:18;;;;;;;;;;;;;;;22.93;96.74;99360.21;1760517;82;20426;-75
2022/04/26 14:55:46;;;;;;;;;;;;;;;22.98;91.54;99373.98;1760929;82;20131;-75
2022/04/26 14:58:14;;;;;;;;;;;;;;;23.00;91.83;99366.30;1760493;82;20158;-76
2022/04/26 15:00:42;;;;;;;;;;;;;;;23.13;88.19;99371.33;1760829;82;20137;-73
2022/04/26 15:03:10;;;;;;;;;;;;;;;23.25;83.37;99375.23;1737244;82;20110;-75
2022/04/26 15:05:37;;;;;;;;;;;;;;;23.32;82.14;99377.75;1782540;78;20102;-75
2022/04/26 15:10:51;;;;;;;;;;;;;;;23.34;81.69;99382.97;1784248;80;20109;-76
2022/04/26 15:18:52;;;;;;;;;;;;;;;22.89;82.02;99376.98;1785257;80;20187;-76
2022/04/26 15:21:24;;;;;;;;;;;;;;;22.80;82.80;99379.98;1785044;80;20097;-75
2022/04/26 15:23:55;;;;;;;;;;;;;;;22.74;81.82;99383.27;1784770;80;20124;-77
2022/04/26 15:26:24;;;;;;;;;;;;;;;22.58;82.82;99384.28;1784174;80;20271;-76
2022/04/26 15:28:52;;;;;;;;;;;;;;;22.47;85.59;99395.75;1752069;80;20129;-76
2022/04/26 15:31:20;;;;;;;;;;;;;;;22.42;87.85;99391.62;1722276;83;20164;-76
2022/04/26 15:33:49;;;;;;;;;;;;;;;22.35;87.37;99397.34;1733413;81;20163;-77
2022/04/26 15:36:16;;;;;;;;;;;;;;;22.25;88.12;99399.43;1767800;81;20145;-75
2022/04/26 15:38:43;;;;;;;;;;;;;;;22.17;85.22;99406.82;1767800;81;20159;-77
2022/04/26 15:41:13;;;;;;;;;;;;;;;22.00;86.42;99404.19;1768423;81;20136;-77
2022/04/26 15:43:41;;;;;;;;;;;;;;;21.86;89.91;99402.41;1745820;82;20139;-76
2022/04/26 15:46:11;;;;;;;;;;;;;;;21.77;92.17;99406.73;1747432;82;20103;-77
2022/04/26 15:48:42;;;;;;;;;;;;;;;21.65;93.51;99406.06;1747912;82;20108;-79
2022/04/26 15:51:10;;;;;;;;;;;;;;;21.54;95.79;99405.13;1748006;82;20914;-78
2022/04/26 15:53:37;;;;;;;;;;;;;;;21.41;99.20;99407.71;1723416;82;20111;-75
2022/04/26 15:56:05;;;;;;;;;;;;;;;21.30;100.00;99410.89;1747969;82;20111;-75
2022/04/26 15:58:34;;;;;;;;;;;;;;;21.20;100.00;99409.39;1748214;82;20092;-77
2022/04/26 16:01:01;;;;;;;;;;;;;;;21.10;100.00;99413.38;1748102;82;20107;-76
2022/04/26 16:03:30;;;;;;;;;;;;;;;21.01;100.00;99411.62;1747706;82;20107;-77
2022/04/26 16:05:58;;;;;;;;;;;;;;;20.92;100.00;99414.53;1748968;82;20087;-76
2022/04/26 16:08:27;;;;;;;;;;;;;;;20.82;100.00;99411.08;1762083;80;20097;-76
2022/04/26 16:22:00;;;;;;;;;;;;;;;20.33;100.00;99412.25;1781262;80;20100;-76
2022/04/26 16:24:29;;;;;;;;;;;;;;;20.24;100.00;99422.30;1781297;79;20160;-76
2022/04/26 16:26:57;;;;;;;;;;;;;;;20.15;100.00;99423.80;1781309;80;20413;-76
2022/04/26 16:29:25;;;;;;;;;;;;;;;20.05;100.00;99424.99;1793627;80;20134;-75
2022/04/26 16:31:54;;;;;;;;;;;;;;;19.97;100.00;99422.09;1822642;79;20112;-76
2022/04/26 16:34:22;;;;;;;;;;;;;;;19.89;100.00;99427.46;1819512;78;20103;-76
2022/04/26 16:36:49;;;;;;;;;;;;;;;19.81;100.00;99431.14;1816996;79;20094;-75
2022/04/26 16:39:19;;;;;;;;;;;;;;;19.70;100.00;99430.92;1816939;79;20106;-76
2022/04/26 16:41:46;;;;;;;;;;;;;;;19.62;100.00;99440.08;1816868;79;20102;-76
2022/04/26 16:44:17;;;;;;;;;;;;;;;19.52;100.00;99437.44;1816818;79;20106;-75
2022/04/26 16:46:47;;;;;;;;;;;;;;;19.42;100.00;99435.05;1816583;79;20110;-76
2022/04/26 16:49:14;;;;;;;;;;;;;;;19.32;100.00;99439.80;1816779;79;20102;-76
2022/04/26 16:51:43;;;;;;;;;;;;;;;19.21;100.00;99432.42;1816566;79;20103;-75
2022/04/26 16:54:12;;;;;;;;;;;;;;;19.10;100.00;99440.42;1816380;79;20083;-74
2022/04/26 16:56:39;;;;;;;;;;;;;;;19.00;100.00;99443.48;1816855;79;20114;-76
2022/04/26 16:59:07;;;;;;;;;;;;;;;18.89;100.00;99441.06;1780588;81;20093;-75
2022/04/26 17:01:35;;;;;;;;;;;;;;;18.77;100.00;99447.37;1748673;81;20147;-75
2022/04/26 17:04:10;;;;;;;;;;;;;;;18.67;100.00;99452.61;1764229;81;20115;-75
2022/04/26 17:06:33;;;;;;;;;;;;;;;18.56;100.00;99457.02;1816967;79;20149;-75
2022/04/26 17:09:00;;;;;;;;;;;;;;;18.45;100.00;99463.33;1816717;79;20439;-76
2022/04/26 17:11:42;;;;;;;;;;;;;;;18.35;100.00;99468.00;1818839;79;20387;-76
2022/04/26 17:14:14;;;;;;;;;;;;;;;18.23;100.00;99472.63;1818737;79;20423;-76
2022/04/26 17:16:42;;;;;;;;;;;;;;;18.11;100.00;99475.33;1786505;80;20100;-75
2022/04/26 17:19:12;;;;;;;;;;;;;;;18.01;100.00;99480.55;1786214;80;20096;-74
2022/04/26 17:21:41;;;;;;;;;;;;;;;17.92;100.00;99477.83;1786520;80;20149;-76
2022/04/26 17:26:56;;;;;;;;;;;;;;;17.73;100.00;99481.97;1786621;80;20112;-75